| time (UTC) | temp C | wind direction | speed KPH | gust KPH | rain 1hr cm | rain 24hr cm | rain mn cm | humidity % | barometer mb |
| 20260505004517 | 13 | 313 | 4.8 | 16.1 | 0.00 | 0.08 | 0.08 | 62 | 1007.4 |
| 20260505003021 | 13 | 360 | 0.0 | 8.0 | 0.00 | 0.08 | 0.08 | 58 | 1007.1 |
| 20260505001514 | 13 | 321 | 4.8 | 9.7 | 0.00 | 0.08 | 0.08 | 64 | 1006.9 |
| 20260505000014 | 13 | 316 | 1.6 | 4.8 | 0.03 | 0.08 | 0.08 | 67 | 1006.8 |
| 20260504234512 | 13 | 132 | 0.0 | 1.6 | 0.05 | 0.08 | 0.08 | 65 | 1006.5 |
| 20260504233013 | 12 | 348 | 0.0 | 0.0 | 0.05 | 0.08 | 0.08 | 72 | 1006.4 |
| 20260504231511 | 12 | 345 | 0.0 | 6.4 | 0.05 | 0.08 | 0.08 | 71 | 1006.6 |
| 20260504230011 | 14 | 292 | 0.0 | 19.3 | 0.00 | 0.03 | 0.03 | 58 | 1006.6 |
| 20260504224510 | 16 | 315 | 0.0 | 4.8 | 0.00 | 0.03 | 0.03 | 42 | 1006.2 |
| 20260504223009 | 16 | 349 | 0.0 | 9.7 | 0.00 | 0.03 | 0.03 | 42 | 1005.7 |
| 20260504221510 | 16 | 345 | 3.2 | 14.5 | 0.03 | 0.03 | 0.03 | 44 | 1005.4 |
| 20260504220009 | 16 | 29 | 1.6 | 9.7 | 0.03 | 0.03 | 0.03 | 49 | 1004.6 |
| 20260504214507 | 15 | 27 | 6.4 | 14.5 | 0.03 | 0.03 | 0.03 | 52 | 1004.8 |
| 20260504213006 | 14 | 42 | 8.0 | 12.9 | 0.03 | 0.03 | 0.03 | 55 | 1005.5 |
| 20260504211505 | 14 | 143 | 0.0 | 17.7 | 0.00 | 0.00 | 0.00 | 49 | 1006.7 |
| 20260504210005 | 16 | 339 | 3.2 | 12.9 | 0.00 | 0.00 | 0.00 | 44 | 1006.5 |
| 20260504204504 | 16 | 8 | 4.8 | 16.1 | 0.00 | 0.00 | 0.00 | 37 | 1005.9 |
| 20260504203003 | 17 | 75 | 9.7 | 33.8 | 0.00 | 0.00 | 0.00 | 34 | 1004.9 |
| 20260504201501 | 19 | 79 | 14.5 | 35.4 | 0.00 | 0.00 | 0.00 | 28 | 1004.2 |
| 20260504200100 | 21 | 342 | 6.4 | 11.3 | 0.00 | 0.00 | 0.00 | 23 | 1004.4 |
| 20260504194610 | 21 | 332 | 3.2 | 17.7 | 0.00 | 0.00 | 0.00 | 25 | 1004.2 |
| 20260504193059 | 22 | 37 | 3.2 | 25.7 | 0.00 | 0.00 | 0.00 | 23 | 1004.2 |
| 20260504191557 | 22 | 314 | 3.2 | 19.3 | 0.00 | 0.00 | 0.00 | 24 | 1004.2 |
| 20260504190127 | 22 | 301 | 1.6 | 25.7 | 0.00 | 0.00 | 0.00 | 24 | 1004.3 |
| 20260504184553 | 22 | 281 | 4.8 | 22.5 | 0.00 | 0.00 | 0.00 | 24 | 1004.4 |
| 20260504183051 | 21 | 248 | 3.2 | 14.5 | 0.00 | 0.00 | 0.00 | 25 | 1004.7 |
| 20260504181550 | 21 | 283 | 4.8 | 12.9 | 0.00 | 0.00 | 0.00 | 23 | 1004.9 |
| 20260504180044 | 21 | 360 | 3.2 | 16.1 | 0.00 | 0.00 | 0.00 | 26 | 1005.1 |
| 20260504174540 | 20 | 246 | 6.4 | 16.1 | 0.00 | 0.00 | 0.00 | 27 | 1005.6 |
| 20260504173036 | 19 | 255 | 3.2 | 12.9 | 0.00 | 0.00 | 0.00 | 28 | 1005.7 |
| 20260504171532 | 18 | 288 | 3.2 | 17.7 | 0.00 | 0.00 | 0.00 | 30 | 1005.8 |
| 20260504110148 | 3 | 309 | 0.0 | 0.0 | 0.00 | 0.00 | 0.00 | 64 | 1006.5 |
| 20260504081517 | 7 | 310 | 0.0 | 0.0 | 0.00 | 0.00 | 0.00 | 44 | 1007.5 |
| 20260504060104 | 11 | 323 | 0.0 | 0.0 | 0.00 | 0.00 | 0.00 | 41 | 1008.3 |
| 20260504050108 | 14 | 346 | 1.6 | 8.0 | 0.00 | 0.00 | 0.00 | 34 | 1008.3 |
| 20260504044550 | 15 | 332 | 3.2 | 8.0 | 0.00 | 0.00 | 0.00 | 30 | 1008.1 |
| 20260504043056 | 16 | 329 | 0.0 | 8.0 | 0.00 | 0.00 | 0.00 | 27 | 1008.1 |
| 20260504041548 | 15 | 259 | 0.0 | 1.6 | 0.00 | 0.00 | 0.00 | 30 | 1007.8 |
| 20260504040048 | 16 | 245 | 0.0 | 4.8 | 0.00 | 0.00 | 0.00 | 30 | 1007.8 |
| 20260504034546 | 16 | 254 | 0.0 | 1.6 | 0.00 | 0.00 | 0.00 | 29 | 1007.9 |
| 20260504033054 | 16 | 183 | 0.0 | 1.6 | 0.00 | 0.00 | 0.00 | 29 | 1007.8 |
| 20260504031556 | 16 | 253 | 0.0 | 0.0 | 0.00 | 0.00 | 0.00 | 29 | 1007.9 |
| 20260504030047 | 17 | 263 | 0.0 | 0.0 | 0.00 | 0.00 | 0.00 | 27 | 1007.8 |
| 20260504024547 | 17 | 242 | 0.0 | 1.6 | 0.00 | 0.00 | 0.00 | 27 | 1007.6 |
| 20260504023044 | 17 | 242 | 0.0 | 0.0 | 0.00 | 0.00 | 0.00 | 27 | 1007.5 |
| 20260504021544 | 18 | 249 | 0.0 | 3.2 | 0.00 | 0.00 | 0.00 | 26 | 1007.4 |
| 20260504020045 | 18 | 316 | 0.0 | 3.2 | 0.00 | 0.00 | 0.00 | 25 | 1007.2 |
| 20260504014554 | 19 | 277 | 0.0 | 4.8 | 0.00 | 0.00 | 0.00 | 24 | 1007.2 |
| 20260504013045 | 19 | 262 | 0.0 | 3.2 | 0.00 | 0.00 | 0.00 | 24 | 1007.0 |
| 20260504011541 | 20 | 259 | 1.6 | 9.7 | 0.00 | 0.00 | 0.00 | 23 | 1007.1 |
| 20260504010038 | 20 | 249 | 3.2 | 11.3 | 0.00 | 0.00 | 0.00 | 23 | 1007.2 |